createdAt,value
2022-10-31T00:01:41.553Z,8.10
2022-10-31T00:04:10.704Z,8.20
2022-10-31T00:06:39.495Z,8.40
2022-10-31T00:09:08.564Z,8.60
2022-10-31T00:11:37.544Z,8.70
2022-10-31T00:14:06.997Z,7.00
2022-10-31T00:16:36.178Z,8.20
2022-10-31T00:19:09.677Z,6.50
2022-10-31T00:21:38.862Z,7.20
2022-10-31T00:24:08.404Z,7.20
2022-10-31T00:26:37.404Z,7.40
2022-10-31T00:29:06.615Z,7.30
2022-10-31T00:31:36.724Z,8.30
2022-10-31T00:34:07.473Z,6.10
2022-10-31T00:36:36.706Z,7.20
2022-10-31T00:39:07.305Z,7.10
2022-10-31T00:41:36.262Z,7.70
2022-10-31T00:44:05.533Z,8.20
2022-10-31T00:46:35.037Z,7.90
2022-10-31T00:49:04.389Z,7.20
2022-10-31T00:51:34.802Z,8.20
2022-10-31T00:54:04.294Z,6.90
2022-10-31T00:56:34.253Z,7.00
2022-10-31T00:59:03.266Z,5.90
2022-10-31T01:01:32.182Z,7.00
2022-10-31T01:04:01.573Z,8.10
2022-10-31T01:06:30.500Z,6.50
2022-10-31T01:09:01.399Z,8.20
2022-10-31T01:11:30.996Z,7.40
2022-10-31T01:14:00.143Z,7.30
2022-10-31T01:16:31.703Z,6.80
2022-10-31T01:19:00.816Z,6.50
2022-10-31T01:21:31.991Z,7.20
2022-10-31T01:24:04.493Z,7.20
2022-10-31T01:26:34.714Z,6.90
2022-10-31T01:29:05.984Z,8.50
2022-10-31T01:31:37.085Z,7.00
2022-10-31T01:34:06.460Z,6.00
2022-10-31T01:36:37.915Z,8.40
2022-10-31T01:39:09.808Z,6.70
2022-10-31T01:41:41.802Z,7.20
2022-10-31T01:44:43.963Z,7.10
2022-10-31T01:47:19.037Z,7.00
2022-10-31T01:49:51.974Z,6.60
2022-10-31T01:55:17.537Z,8.40
2022-10-31T01:57:50.033Z,7.00
2022-10-31T02:00:19.503Z,7.30
2022-10-31T02:02:49.422Z,7.20
2022-10-31T02:05:21.253Z,8.40
2022-10-31T02:07:57.095Z,7.80
2022-10-31T02:10:27.542Z,6.30
2022-10-31T02:13:00.815Z,6.70
2022-10-31T02:15:32.925Z,6.90
2022-10-31T02:18:09.863Z,8.70
2022-10-31T02:20:46.031Z,7.30
2022-10-31T02:23:56.467Z,8.60
2022-10-31T02:26:55.391Z,6.10
2022-10-31T02:30:03.157Z,7.40
2022-10-31T02:32:53.875Z,7.30
2022-10-31T02:35:36.702Z,7.50
2022-10-31T02:38:13.243Z,7.50
2022-10-31T02:40:50.713Z,7.60
2022-10-31T02:43:23.862Z,8.40
2022-10-31T02:46:00.213Z,8.30
2022-10-31T02:48:32.210Z,8.90
2022-10-31T02:51:05.467Z,8.00
2022-10-31T02:53:36.097Z,7.50
2022-10-31T02:56:09.256Z,6.70
2022-10-31T02:58:42.950Z,7.70
2022-10-31T03:01:47.180Z,7.70
2022-10-31T03:04:54.955Z,9.00
2022-10-31T03:07:31.211Z,7.80
2022-10-31T03:10:09.839Z,8.70
2022-10-31T03:12:48.553Z,6.70
2022-10-31T03:15:26.128Z,7.10
2022-10-31T03:18:03.262Z,8.10
2022-10-31T03:20:41.243Z,6.70
2022-10-31T03:23:42.302Z,7.60
2022-10-31T03:26:15.074Z,7.40
2022-10-31T03:28:49.009Z,8.20
2022-10-31T03:31:21.382Z,6.90
2022-10-31T03:33:53.565Z,9.20
2022-10-31T03:36:23.515Z,7.70
2022-10-31T03:38:54.723Z,7.80
2022-10-31T03:41:28.887Z,9.20
2022-10-31T03:44:02.346Z,7.00
2022-10-31T03:46:31.843Z,8.10
2022-10-31T03:49:04.102Z,9.20
2022-10-31T03:51:39.919Z,7.60
2022-10-31T03:54:17.397Z,7.70
2022-10-31T03:56:52.332Z,7.60
2022-10-31T03:59:25.471Z,8.90
2022-10-31T04:01:59.097Z,6.40
2022-10-31T04:04:31.414Z,8.30
2022-10-31T04:07:02.545Z,7.80
2022-10-31T04:09:37.136Z,9.30
2022-10-31T04:12:09.706Z,7.80
2022-10-31T04:14:40.231Z,7.60
2022-10-31T04:17:12.944Z,9.10
2022-10-31T04:19:41.149Z,9.10
2022-10-31T04:22:09.756Z,7.70
2022-10-31T04:24:41.735Z,8.40
2022-10-31T04:27:09.783Z,8.70
2022-10-31T04:29:37.838Z,9.00
2022-10-31T04:32:06.336Z,8.70
2022-10-31T04:34:34.415Z,7.80
2022-10-31T04:37:02.556Z,8.30
2022-10-31T04:39:30.688Z,8.50
2022-10-31T04:42:00.135Z,7.80
2022-10-31T04:44:28.219Z,9.20
2022-10-31T04:46:56.291Z,8.80
2022-10-31T04:49:24.507Z,7.90
2022-10-31T04:51:52.627Z,8.60
2022-10-31T04:54:20.769Z,9.30
2022-10-31T04:56:48.843Z,8.00
2022-10-31T04:59:18.486Z,8.90
2022-10-31T05:01:46.794Z,9.20
2022-10-31T05:04:15.045Z,7.90
2022-10-31T05:06:43.185Z,9.10
2022-10-31T05:09:11.341Z,9.10
2022-10-31T05:11:39.891Z,9.00
2022-10-31T05:14:08.113Z,9.00
2022-10-31T05:16:37.634Z,7.90
2022-10-31T05:19:05.789Z,8.40
2022-10-31T05:21:33.971Z,8.10
2022-10-31T05:24:02.079Z,9.20
2022-10-31T05:26:30.167Z,7.90
2022-10-31T05:28:58.271Z,9.10
2022-10-31T05:31:26.729Z,8.00
2022-10-31T05:33:56.323Z,7.90
2022-10-31T05:36:24.431Z,8.50
2022-10-31T05:38:52.704Z,8.90
2022-10-31T05:41:20.771Z,9.10
2022-10-31T05:43:48.861Z,9.30
2022-10-31T05:46:16.968Z,8.60
2022-10-31T05:48:45.009Z,8.70
2022-10-31T05:51:14.773Z,8.80
2022-10-31T05:53:42.909Z,9.40
2022-10-31T05:56:10.928Z,9.20
2022-10-31T05:58:38.976Z,9.70
2022-10-31T06:01:07.493Z,7.60
2022-10-31T06:03:35.597Z,7.10
2022-10-31T06:06:03.617Z,9.40
2022-10-31T06:08:33.271Z,8.20
2022-10-31T06:11:01.284Z,8.80
2022-10-31T06:13:29.372Z,8.30
2022-10-31T06:15:57.453Z,9.10
2022-10-31T06:18:25.490Z,8.40
2022-10-31T06:20:53.446Z,8.40
2022-10-31T06:23:21.547Z,8.50
2022-10-31T06:25:52.685Z,8.40
2022-10-31T06:28:20.761Z,8.50
2022-10-31T06:30:48.728Z,8.50
2022-10-31T06:33:16.683Z,8.40
2022-10-31T06:35:47.906Z,8.40
2022-10-31T06:38:16.382Z,8.40
2022-10-31T06:40:44.388Z,8.40
2022-10-31T06:43:15.469Z,8.40
2022-10-31T06:45:43.522Z,8.50
2022-10-31T06:48:17.273Z,8.50
2022-10-31T06:50:46.213Z,8.50
2022-10-31T06:53:17.686Z,8.60
2022-10-31T06:55:46.445Z,8.60
2022-10-31T06:58:15.777Z,9.90
2022-10-31T07:00:43.881Z,8.80
2022-10-31T07:03:13.628Z,9.70
2022-10-31T07:05:41.745Z,8.70
2022-10-31T07:08:12.171Z,9.50
2022-10-31T07:10:41.831Z,9.00
2022-10-31T07:13:13.637Z,8.90
2022-10-31T07:15:44.080Z,8.90
2022-10-31T07:18:14.039Z,8.90
2022-10-31T07:20:42.300Z,8.90
2022-10-31T07:23:11.243Z,8.90
2022-10-31T07:25:39.484Z,8.90
2022-10-31T07:28:07.823Z,9.00
2022-10-31T07:30:36.330Z,9.00
2022-10-31T07:33:06.846Z,9.40
2022-10-31T07:35:35.865Z,10.30
2022-10-31T07:38:11.196Z,10.10
2022-10-31T07:40:40.112Z,10.30
2022-10-31T07:43:10.217Z,10.20
2022-10-31T07:45:41.195Z,10.30
2022-10-31T07:48:10.666Z,9.60
2022-10-31T07:50:38.620Z,9.20
2022-10-31T07:53:09.162Z,9.30
2022-10-31T07:55:37.577Z,9.50
2022-10-31T07:58:06.889Z,9.70
2022-10-31T08:00:36.387Z,9.40
2022-10-31T08:03:06.088Z,9.50
2022-10-31T08:05:36.437Z,10.40
2022-10-31T08:08:04.724Z,10.80
2022-10-31T08:10:34.177Z,9.60
2022-10-31T08:13:04.464Z,9.80
2022-10-31T08:15:33.227Z,10.30
2022-10-31T08:18:01.699Z,9.80
2022-10-31T08:20:30.054Z,10.40
2022-10-31T08:23:01.739Z,10.70
2022-10-31T08:25:47.253Z,10.80
2022-10-31T08:28:16.174Z,10.80
2022-10-31T08:30:44.406Z,11.00
2022-10-31T08:33:15.022Z,11.10
2022-10-31T08:35:53.385Z,10.80
2022-10-31T08:38:27.198Z,9.40
2022-10-31T08:40:58.923Z,10.10
2022-10-31T08:43:27.278Z,9.90
2022-10-31T08:45:56.104Z,10.70
2022-10-31T08:48:25.514Z,11.50
2022-10-31T08:50:54.267Z,10.40
2022-10-31T08:53:24.160Z,10.70
